Time;durP1;ratioP1;P1;durP2;ratioP2;P2;SDS_P1;SDS_P2;PMS_P1;PMS_P2;Temp;Humidity;BMP_temperature;BMP_pressure;BME280_temperature;BME280_humidity;BME280_pressure;Samples;Min_cycle;Max_cycle;Signal;HPM_P1;HPM_P2
2022/06/24 00:02:20;;;;;;;2.37;1.20;;;;;;;20.20;100.00;99634.63;5018259;28;20194;-77
2022/06/24 00:04:54;;;;;;;2.30;1.30;;;;;;;20.20;100.00;99620.63;5005433;28;20298;-75
2022/06/24 00:07:19;;;;;;;1.20;1.00;;;;;;;20.15;100.00;99625.34;4993925;28;20312;-76
2022/06/24 00:09:46;;;;;;;2.57;1.00;;;;;;;20.12;100.00;99622.88;5002650;28;20446;-75
2022/06/24 00:12:14;;;;;;;2.93;1.13;;;;;;;20.10;100.00;99615.13;5003707;28;20180;-75
2022/06/24 00:14:42;;;;;;;1.30;0.83;;;;;;;20.09;100.00;99629.19;5017257;28;20635;-77
2022/06/24 00:17:09;;;;;;;1.47;0.97;;;;;;;20.05;100.00;99631.13;5017732;28;20596;-76
2022/06/24 00:20:06;;;;;;;2.97;1.37;;;;;;;20.05;100.00;99630.28;4994162;28;20677;-75
2022/06/24 00:22:39;;;;;;;2.90;1.23;;;;;;;20.05;100.00;99627.66;4993805;28;20581;-75
2022/06/24 00:25:13;;;;;;;1.80;1.10;;;;;;;20.01;100.00;99627.00;4999541;28;20913;-75
2022/06/24 00:27:39;;;;;;;1.67;1.00;;;;;;;20.00;100.00;99641.06;4998906;28;20189;-75
2022/06/24 00:30:13;;;;;;;2.13;1.40;;;;;;;19.97;100.00;99638.63;4994031;28;20237;-75
2022/06/24 00:32:39;;;;;;;1.97;1.20;;;;;;;19.92;100.00;99641.53;4990628;28;20198;-75
2022/06/24 00:35:12;;;;;;;1.83;1.10;;;;;;;19.91;100.00;99641.59;4997986;28;20225;-74
2022/06/24 00:37:39;;;;;;;2.67;1.20;;;;;;;19.89;100.00;99633.00;4992387;28;20242;-76
2022/06/24 00:40:10;;;;;;;1.53;1.00;;;;;;;19.88;100.00;99634.75;5001024;28;20210;-75
2022/06/24 00:42:47;;;;;;;1.77;0.97;;;;;;;19.87;100.00;99640.94;4993645;28;20191;-75
2022/06/24 00:45:45;;;;;;;2.00;0.90;;;;;;;19.88;100.00;99636.53;4995969;28;20217;-75
2022/06/24 00:48:15;;;;;;;1.20;1.10;;;;;;;19.85;100.00;99631.44;4999162;28;20287;-75
2022/06/24 00:50:46;;;;;;;3.20;1.47;;;;;;;19.84;100.00;99646.31;5008524;28;20206;-75
2022/06/24 00:53:13;;;;;;;1.53;0.90;;;;;;;19.82;100.00;99657.84;4995413;28;20296;-75
2022/06/24 00:55:41;;;;;;;1.60;1.00;;;;;;;19.78;100.00;99649.31;5000124;28;20184;-75
2022/06/24 00:58:13;;;;;;;1.83;1.20;;;;;;;19.76;100.00;99654.66;4998400;28;20202;-75
2022/06/24 01:00:42;;;;;;;2.07;1.10;;;;;;;19.72;100.00;99662.78;4996333;28;20196;-75
2022/06/24 01:03:08;;;;;;;2.10;1.07;;;;;;;19.69;100.00;99655.09;4999855;28;20223;-75
2022/06/24 01:05:33;;;;;;;1.50;1.07;;;;;;;19.64;100.00;99661.47;5003242;28;20227;-76
2022/06/24 01:08:07;;;;;;;1.07;0.97;;;;;;;19.60;100.00;99678.31;5001596;28;20213;-76
2022/06/24 01:10:33;;;;;;;1.97;1.30;;;;;;;19.56;100.00;99684.66;5000998;28;20349;-74
2022/06/24 01:12:58;;;;;;;1.67;1.03;;;;;;;19.57;100.00;99699.47;5001164;28;20214;-76
2022/06/24 01:15:24;;;;;;;1.40;1.10;;;;;;;19.58;100.00;99685.41;4996144;28;20192;-75
2022/06/24 01:17:50;;;;;;;1.53;0.90;;;;;;;19.58;100.00;99685.41;4994912;28;20194;-76
2022/06/24 01:20:16;;;;;;;1.40;1.00;;;;;;;19.59;100.00;99688.88;5005042;28;20197;-75
2022/06/24 01:22:41;;;;;;;1.70;1.00;;;;;;;19.60;100.00;99670.44;4999903;28;20623;-75
2022/06/24 01:25:08;;;;;;;1.90;1.30;;;;;;;19.60;100.00;99680.06;5001419;28;20219;-74
2022/06/24 01:27:34;;;;;;;2.47;1.10;;;;;;;19.57;100.00;99683.72;5001285;28;20207;-75
2022/06/24 01:30:03;;;;;;;1.80;1.40;;;;;;;19.59;100.00;99684.50;5003864;28;20195;-74
2022/06/24 01:32:29;;;;;;;1.83;1.20;;;;;;;19.59;100.00;99688.88;5012700;28;20190;-75
2022/06/24 01:34:56;;;;;;;1.90;1.30;;;;;;;19.57;100.00;99690.75;5033478;28;20951;-75
2022/06/24 01:37:22;;;;;;;2.03;1.37;;;;;;;19.56;100.00;99687.28;5016165;28;20651;-74
2022/06/24 01:39:47;;;;;;;1.33;1.00;;;;;;;19.55;100.00;99688.22;5004514;28;20246;-74
2022/06/24 01:42:13;;;;;;;2.17;0.97;;;;;;;19.55;100.00;99685.59;5005415;28;20798;-75
2022/06/24 01:44:38;;;;;;;2.83;1.40;;;;;;;19.54;100.00;99691.75;5019503;28;20274;-75
2022/06/24 01:47:04;;;;;;;1.20;1.10;;;;;;;19.56;100.00;99676.78;5017210;28;20319;-74
2022/06/24 01:49:29;;;;;;;1.43;1.10;;;;;;;19.57;100.00;99675.03;5004737;28;20228;-74
2022/06/24 01:51:56;;;;;;;1.67;1.00;;;;;;;19.58;100.00;99666.22;5020884;28;20337;-74
2022/06/24 01:54:22;;;;;;;2.10;1.20;;;;;;;19.54;100.00;99648.94;5001031;28;20215;-75
2022/06/24 01:56:48;;;;;;;1.80;1.00;;;;;;;19.52;100.00;99656.88;5003525;28;20598;-75
2022/06/24 01:59:14;;;;;;;1.83;1.17;;;;;;;19.53;100.00;99649.88;5003298;28;21047;-75
2022/06/24 02:01:40;;;;;;;2.17;1.20;;;;;;;19.52;100.00;99651.63;5002562;28;20195;-75
2022/06/24 02:04:06;;;;;;;2.30;1.10;;;;;;;19.49;100.00;99650.03;4998722;28;20699;-75
2022/06/24 02:06:32;;;;;;;1.33;1.00;;;;;;;19.47;100.00;99651.06;5002647;28;20214;-74
2022/06/24 02:08:57;;;;;;;0.97;0.87;;;;;;;19.43;100.00;99650.41;5006729;28;20715;-75
2022/06/24 02:14:09;;;;;;;1.83;1.10;;;;;;;19.33;100.00;99646.59;5001799;28;20219;-75
2022/06/24 02:16:35;;;;;;;1.17;0.90;;;;;;;19.29;100.00;99645.06;5004527;28;20218;-74
2022/06/24 02:19:00;;;;;;;1.10;1.00;;;;;;;19.24;100.00;99637.44;5000782;28;20857;-75
2022/06/24 02:21:26;;;;;;;1.67;1.30;;;;;;;19.23;100.00;99637.53;5019188;28;20192;-74
2022/06/24 02:23:53;;;;;;;2.77;1.60;;;;;;;19.19;100.00;99629.84;5003809;28;20226;-74
2022/06/24 02:26:19;;;;;;;3.40;1.40;;;;;;;19.17;100.00;99626.44;5003689;28;20190;-74
2022/06/24 02:28:45;;;;;;;3.07;1.50;;;;;;;19.14;100.00;99620.53;5001543;28;20235;-75
2022/06/24 02:31:11;;;;;;;2.00;1.33;;;;;;;19.08;100.00;99624.34;5001088;28;20192;-74
2022/06/24 02:33:36;;;;;;;2.80;1.50;;;;;;;19.05;100.00;99624.50;5013633;28;20203;-74
2022/06/24 02:36:03;;;;;;;3.30;1.50;;;;;;;19.01;100.00;99623.84;4999007;28;20702;-75
2022/06/24 02:38:29;;;;;;;2.03;1.77;;;;;;;18.97;100.00;99624.09;4997364;28;20190;-75
2022/06/24 02:40:54;;;;;;;2.63;1.63;;;;;;;18.93;100.00;99622.53;5003811;28;20538;-74
2022/06/24 02:43:22;;;;;;;1.43;1.33;;;;;;;18.88;100.00;99625.41;4999019;28;20211;-75
2022/06/24 02:45:59;;;;;;;1.90;1.67;;;;;;;18.83;100.00;99622.19;5002440;28;20215;-74
2022/06/24 02:48:26;;;;;;;1.70;1.60;;;;;;;18.77;100.00;99606.78;5003870;28;20192;-74
2022/06/24 02:50:53;;;;;;;2.00;1.80;;;;;;;18.73;100.00;99608.72;5020921;28;20582;-75
2022/06/24 02:53:20;;;;;;;2.87;2.07;;;;;;;18.69;100.00;99610.66;4999060;28;20213;-74
2022/06/24 02:55:48;;;;;;;2.30;1.67;;;;;;;18.68;100.00;99619.47;5001393;28;20227;-75
2022/06/24 02:58:17;;;;;;;1.80;1.70;;;;;;;18.66;100.00;99617.84;5001603;28;20188;-74
2022/06/24 03:00:43;;;;;;;5.33;1.93;;;;;;;18.63;100.00;99612.78;5003566;28;20180;-74
2022/06/24 03:03:13;;;;;;;2.30;1.90;;;;;;;18.61;100.00;99612.00;5000385;28;20216;-74
2022/06/24 03:05:39;;;;;;;2.33;1.90;;;;;;;18.57;100.00;99606.91;4998224;28;20296;-75
2022/06/24 03:08:05;;;;;;;3.03;1.50;;;;;;;18.54;100.00;99604.47;5017898;28;20197;-75
2022/06/24 03:10:31;;;;;;;2.07;1.60;;;;;;;18.51;100.00;99602.03;5003852;28;20267;-75
2022/06/24 03:12:57;;;;;;;3.07;1.30;;;;;;;18.48;100.00;99596.94;4997918;28;20294;-75
2022/06/24 03:15:22;;;;;;;2.10;1.87;;;;;;;18.47;100.00;99602.25;4997656;28;20215;-75
2022/06/24 03:17:48;;;;;;;2.10;1.50;;;;;;;18.45;100.00;99599.72;5000965;28;20548;-74
2022/06/24 03:20:13;;;;;;;1.90;1.70;;;;;;;18.45;100.00;99591.84;5000868;28;20638;-75
2022/06/24 03:22:42;;;;;;;2.27;1.50;;;;;;;18.45;100.00;99585.78;5000263;28;20271;-74
2022/06/24 03:25:08;;;;;;;1.80;1.70;;;;;;;18.42;100.00;99594.63;4999883;28;20267;-75
2022/06/24 03:27:35;;;;;;;1.83;1.73;;;;;;;18.40;100.00;99592.09;5001552;28;20200;-74
2022/06/24 03:30:00;;;;;;;3.97;2.20;;;;;;;18.39;100.00;99586.94;5000372;28;20185;-74
2022/06/24 03:32:26;;;;;;;2.30;1.63;;;;;;;18.38;100.00;99582.63;4999411;28;20202;-74
2022/06/24 03:34:51;;;;;;;2.20;1.80;;;;;;;18.35;100.00;99578.38;5000901;28;20184;-75
2022/06/24 03:37:17;;;;;;;2.20;1.60;;;;;;;18.34;100.00;99586.34;5001177;28;20194;-75
2022/06/24 03:39:42;;;;;;;3.20;1.97;;;;;;;18.32;100.00;99581.16;5001279;28;20192;-74
2022/06/24 03:42:08;;;;;;;2.07;1.53;;;;;;;18.30;100.00;99579.56;5000488;28;20181;-74
2022/06/24 03:44:33;;;;;;;2.30;2.00;;;;;;;18.26;100.00;99582.34;5001050;28;20220;-75
2022/06/24 03:47:01;;;;;;;2.60;1.83;;;;;;;18.27;100.00;99567.50;5013378;28;20735;-76
2022/06/24 03:49:26;;;;;;;3.00;1.70;;;;;;;18.27;100.00;99568.31;5017276;28;20190;-75
2022/06/24 03:51:52;;;;;;;2.00;1.80;;;;;;;18.26;100.00;99569.25;5016209;28;20183;-74
2022/06/24 03:54:17;;;;;;;3.53;2.10;;;;;;;18.27;100.00;99570.94;5000532;28;20296;-75
2022/06/24 03:56:43;;;;;;;2.00;1.80;;;;;;;18.27;100.00;99563.06;5001993;28;20199;-75
2022/06/24 03:59:08;;;;;;;5.30;2.10;;;;;;;18.28;100.00;99567.41;5001043;28;20195;-76
2022/06/24 04:01:33;;;;;;;2.60;1.63;;;;;;;18.33;100.00;99561.91;5005111;28;20198;-75
2022/06/24 04:03:59;;;;;;;2.63;2.03;;;;;;;18.41;100.00;99566.75;5002369;28;20216;-76
2022/06/24 04:06:25;;;;;;;2.00;1.90;;;;;;;18.89;100.00;99569.44;5000353;28;20718;-76
2022/06/24 04:08:52;;;;;;;2.27;1.80;;;;;;;19.37;100.00;99572.03;5001651;28;20249;-75
2022/06/24 04:11:18;;;;;;;3.33;2.00;;;;;;;19.54;100.00;99576.28;5002185;28;20278;-75
2022/06/24 04:13:44;;;;;;;3.23;2.17;;;;;;;19.52;100.00;99578.16;4999575;28;20304;-75
2022/06/24 04:16:09;;;;;;;3.80;2.43;;;;;;;19.51;100.00;99584.38;5019392;28;20225;-75
2022/06/24 04:18:35;;;;;;;3.63;2.30;;;;;;;19.61;100.00;99590.75;5001676;28;20616;-75
2022/06/24 04:21:01;;;;;;;2.67;1.90;;;;;;;19.76;100.00;99599.50;5003963;28;20214;-75
2022/06/24 04:23:27;;;;;;;3.43;2.20;;;;;;;20.41;100.00;99597.50;5019466;28;20243;-75
2022/06/24 04:25:53;;;;;;;4.17;1.73;;;;;;;20.75;100.00;99602.44;5000582;28;20426;-75
2022/06/24 04:28:18;;;;;;;2.60;1.73;;;;;;;20.73;100.00;99604.31;4999346;28;20194;-75
2022/06/24 04:30:44;;;;;;;2.33;1.87;;;;;;;20.66;100.00;99606.50;5001997;28;20206;-76
2022/06/24 04:33:09;;;;;;;2.07;1.80;;;;;;;20.61;100.00;99600.66;5019615;28;20257;-77
2022/06/24 04:35:35;;;;;;;2.90;2.00;;;;;;;20.56;100.00;99604.44;5001859;28;20192;-75
2022/06/24 04:38:01;;;;;;;3.43;2.13;;;;;;;20.61;100.00;99606.78;5001256;28;20664;-76
2022/06/24 04:40:26;;;;;;;2.47;2.23;;;;;;;20.96;100.00;99608.16;5000837;28;20192;-76
2022/06/24 04:42:51;;;;;;;2.97;2.37;;;;;;;21.98;100.00;99606.00;5014930;28;20204;-76
2022/06/24 04:45:17;;;;;;;3.87;2.10;;;;;;;23.25;100.00;99605.97;5003658;28;20207;-78
2022/06/24 04:47:43;;;;;;;3.10;2.40;;;;;;;24.62;100.00;99599.19;5004266;28;20231;-77
2022/06/24 04:50:09;;;;;;;4.17;2.47;;;;;;;25.78;100.00;99597.00;5014915;28;20231;-77
2022/06/24 04:52:37;;;;;;;5.43;2.73;;;;;;;26.63;96.77;99592.41;5000755;28;20242;-77
2022/06/24 04:55:03;;;;;;;3.33;2.27;;;;;;;27.21;94.50;99596.22;5006245;28;20184;-76
2022/06/24 04:57:28;;;;;;;2.97;2.00;;;;;;;27.76;93.29;99581.53;5022003;28;20268;-77
2022/06/24 04:59:54;;;;;;;6.00;1.90;;;;;;;28.06;92.22;99590.28;5008550;28;20223;-76
2022/06/24 05:02:19;;;;;;;3.40;2.00;;;;;;;28.24;90.93;99593.03;5008699;28;20180;-76
2022/06/24 05:04:45;;;;;;;4.90;2.50;;;;;;;27.97;90.78;99599.13;5002322;28;20689;-77
2022/06/24 05:07:10;;;;;;;5.17;2.67;;;;;;;27.27;92.66;99604.59;5004195;28;20192;-76
2022/06/24 05:09:36;;;;;;;5.70;2.57;;;;;;;26.65;93.84;99597.59;5017811;28;20187;-76
2022/06/24 05:12:02;;;;;;;4.47;2.40;;;;;;;26.12;95.15;99594.16;5006516;28;20189;-76
2022/06/24 05:14:29;;;;;;;5.43;2.67;;;;;;;25.98;95.97;99602.41;5021791;28;20220;-76
2022/06/24 05:16:55;;;;;;;3.27;2.57;;;;;;;26.01;96.32;99608.31;5001981;28;20184;-76
2022/06/24 05:19:21;;;;;;;3.80;2.50;;;;;;;26.01;95.93;99596.84;5002971;28;20213;-75
2022/06/24 05:21:46;;;;;;;4.47;2.10;;;;;;;25.65;96.71;99598.97;5006071;28;20204;-76
2022/06/24 05:24:12;;;;;;;2.33;2.07;;;;;;;25.12;98.68;99603.25;5005649;28;20856;-77
2022/06/24 05:26:37;;;;;;;2.90;2.10;;;;;;;24.58;100.00;99603.03;5005668;28;20275;-75
2022/06/24 05:29:03;;;;;;;3.47;2.30;;;;;;;24.08;100.00;99587.53;5004998;28;20222;-76
2022/06/24 05:31:28;;;;;;;3.77;2.37;;;;;;;23.67;100.00;99594.13;5019709;28;20196;-76
2022/06/24 05:33:54;;;;;;;6.33;3.00;;;;;;;23.45;100.00;99593.06;5004404;28;20279;-75
2022/06/24 05:36:19;;;;;;;5.50;2.50;;;;;;;23.35;100.00;99603.50;5006871;28;20192;-75
2022/06/24 05:38:46;;;;;;;3.90;2.33;;;;;;;23.56;100.00;99597.56;5012581;28;20188;-76
2022/06/24 05:41:12;;;;;;;6.13;2.40;;;;;;;24.02;100.00;99593.28;5005490;28;20180;-76
2022/06/24 05:43:38;;;;;;;4.17;2.37;;;;;;;24.32;100.00;99591.88;5001469;28;20335;-76
2022/06/24 05:46:03;;;;;;;3.33;2.37;;;;;;;24.87;100.00;99596.44;5005949;28;20223;-76
2022/06/24 05:48:30;;;;;;;3.10;2.30;;;;;;;25.52;99.28;99594.69;5004501;28;20188;-77
2022/06/24 05:50:56;;;;;;;3.47;2.23;;;;;;;25.43;99.13;99587.53;5007433;28;20271;-77
2022/06/24 05:56:05;;;;;;;4.43;2.80;;;;;;;24.83;100.00;99593.22;5004771;28;20187;-75
2022/06/24 05:58:31;;;;;;;3.97;2.77;;;;;;;24.88;100.00;99591.00;5005235;28;20184;-76
2022/06/24 06:00:57;;;;;;;4.10;2.53;;;;;;;25.15;99.85;99596.84;5005581;28;20180;-75
2022/06/24 06:03:24;;;;;;;4.13;2.90;;;;;;;25.33;99.03;99597.19;5005384;28;20201;-75
2022/06/24 06:05:50;;;;;;;5.57;2.50;;;;;;;25.22;98.94;99592.75;5021049;28;20257;-76
2022/06/24 06:08:16;;;;;;;5.70;2.40;;;;;;;25.01;99.11;99590.06;5005481;28;20781;-76
2022/06/24 06:10:43;;;;;;;3.00;2.60;;;;;;;25.37;98.82;99590.63;5006071;28;20188;-76
2022/06/24 06:13:09;;;;;;;5.13;2.37;;;;;;;25.76;97.74;99585.69;5002919;28;20380;-75
2022/06/24 06:15:34;;;;;;;3.67;2.50;;;;;;;26.12;96.62;99580.06;5001757;28;20279;-76
2022/06/24 06:18:01;;;;;;;5.60;2.77;;;;;;;27.15;93.18;99580.81;5007847;28;20696;-77
2022/06/24 06:20:27;;;;;;;3.77;2.30;;;;;;;28.63;88.87;99581.38;5008282;28;20621;-76
2022/06/24 06:22:52;;;;;;;3.73;2.20;;;;;;;30.26;84.79;99586.69;5006872;28;20683;-77
2022/06/24 06:25:18;;;;;;;3.10;2.30;;;;;;;31.67;81.73;99584.38;5004694;28;20218;-77
2022/06/24 06:27:44;;;;;;;4.47;2.00;;;;;;;32.75;78.89;99582.25;5005845;28;20188;-76
2022/06/24 06:30:10;;;;;;;4.10;2.13;;;;;;;33.00;77.56;99591.00;5020523;28;20223;-75
2022/06/24 06:32:36;;;;;;;5.17;2.23;;;;;;;32.34;78.36;99594.81;5003087;28;20211;-76
2022/06/24 06:35:03;;;;;;;2.43;1.77;;;;;;;31.59;79.70;99599.41;5020112;28;20176;-76
2022/06/24 06:37:28;;;;;;;5.87;2.23;;;;;;;30.65;81.31;99596.06;5005982;28;20194;-76
2022/06/24 06:39:54;;;;;;;4.30;2.10;;;;;;;29.72;83.49;99603.66;5003939;28;20211;-77
2022/06/24 06:42:19;;;;;;;3.60;2.20;;;;;;;29.18;85.09;99606.31;5002205;28;20601;-76
2022/06/24 06:44:44;;;;;;;5.17;2.40;;;;;;;29.54;84.27;99602.84;5003695;28;20667;-75
2022/06/24 06:47:10;;;;;;;4.50;2.20;;;;;;;30.21;82.41;99610.31;5005464;28;20901;-77
2022/06/24 06:49:35;;;;;;;4.67;2.00;;;;;;;29.94;83.07;99612.13;5005111;28;20185;-75
2022/06/24 06:52:02;;;;;;;2.50;1.83;;;;;;;29.34;84.13;99613.63;5006403;28;20235;-76
2022/06/24 06:54:27;;;;;;;3.53;2.37;;;;;;;28.85;85.45;99609.47;5020057;28;20200;-76
2022/06/24 06:56:53;;;;;;;5.37;2.30;;;;;;;28.79;85.71;99609.22;5005375;28;20276;-76
2022/06/24 06:59:18;;;;;;;5.20;2.20;;;;;;;28.71;86.06;99608.13;5004657;28;20692;-75
2022/06/24 07:01:46;;;;;;;3.47;2.00;;;;;;;28.44;86.36;99622.25;5005818;28;20722;-75
2022/06/24 07:04:12;;;;;;;3.17;2.07;;;;;;;28.33;87.06;99611.78;5002334;28;20209;-76
2022/06/24 07:06:37;;;;;;;4.77;2.10;;;;;;;28.54;86.35;99603.59;5005007;28;20180;-76
2022/06/24 07:09:02;;;;;;;4.50;2.60;;;;;;;28.85;85.37;99614.78;4997269;28;20622;-77
2022/06/24 07:11:28;;;;;;;5.87;2.40;;;;;;;29.50;83.82;99608.47;5006256;28;20180;-75
2022/06/24 07:13:54;;;;;;;4.23;2.40;;;;;;;30.20;82.18;99614.00;5002495;28;20730;-76
2022/06/24 07:16:20;;;;;;;3.70;2.20;;;;;;;30.52;80.90;99604.47;5003866;28;20180;-75
2022/06/24 07:18:45;;;;;;;2.20;2.00;;;;;;;30.87;80.32;99605.31;5004477;28;20789;-75
2022/06/24 07:21:12;;;;;;;3.53;2.13;;;;;;;31.46;79.15;99615.13;5004851;28;20200;-76
2022/06/24 07:23:38;;;;;;;3.43;2.10;;;;;;;31.71;78.18;99617.81;5003208;28;20212;-76
2022/06/24 07:26:03;;;;;;;3.00;2.17;;;;;;;31.59;78.11;99614.63;5003142;28;20255;-77
2022/06/24 07:28:29;;;;;;;5.90;2.57;;;;;;;31.79;76.68;99607.13;5014630;28;20201;-76
2022/06/24 07:30:54;;;;;;;3.47;2.10;;;;;;;31.74;74.60;99615.66;5003680;28;20180;-76
2022/06/24 07:33:19;;;;;;;2.60;2.03;;;;;;;31.08;75.21;99606.69;4999017;28;20563;-77
2022/06/24 07:35:48;;;;;;;4.37;2.20;;;;;;;30.38;76.64;99606.75;5003617;28;20204;-76
2022/06/24 07:38:13;;;;;;;3.27;2.20;;;;;;;29.64;78.14;99603.59;5018142;28;20200;-76
2022/06/24 07:40:39;;;;;;;2.70;2.13;;;;;;;28.95;80.34;99601.41;5004060;28;20698;-75
2022/06/24 07:43:04;;;;;;;4.13;2.00;;;;;;;28.47;81.62;99599.81;4997877;28;20219;-77
2022/06/24 07:45:29;;;;;;;3.17;1.83;;;;;;;28.39;82.29;99588.09;5002331;28;20274;-76
2022/06/24 07:47:55;;;;;;;3.17;1.80;;;;;;;28.92;81.45;99600.88;5005140;28;20294;-76
2022/06/24 07:50:20;;;;;;;4.33;2.33;;;;;;;29.73;79.64;99597.31;5021519;28;20279;-77
2022/06/24 07:52:46;;;;;;;4.43;1.97;;;;;;;29.93;78.56;99599.78;5004419;28;20299;-77
2022/06/24 07:57:56;;;;;;;2.87;1.97;;;;;;;29.33;80.43;99596.81;5006720;28;20192;-76
2022/06/24 08:00:21;;;;;;;2.37;1.70;;;;;;;29.56;80.09;99603.53;5020378;28;20193;-76
2022/06/24 08:02:47;;;;;;;3.27;1.87;;;;;;;29.85;79.21;99594.41;5005470;28;20211;-76
2022/06/24 08:05:12;;;;;;;2.40;1.80;;;;;;;29.75;78.55;99595.34;5004269;28;20203;-76
2022/06/24 08:07:38;;;;;;;2.37;1.87;;;;;;;29.33;79.25;99579.97;4994208;28;20263;-76
2022/06/24 08:10:03;;;;;;;2.13;1.90;;;;;;;28.95;80.75;99582.78;4993164;28;20196;-75
2022/06/24 08:12:32;;;;;;;5.00;1.90;;;;;;;28.88;81.29;99579.88;5001534;28;20195;-76
2022/06/24 08:14:57;;;;;;;2.17;1.90;;;;;;;28.83;81.78;99573.34;5004328;28;20180;-76
2022/06/24 08:17:22;;;;;;;1.67;1.57;;;;;;;28.97;81.54;99582.63;5003806;28;20219;-76
2022/06/24 08:19:48;;;;;;;3.00;1.90;;;;;;;29.12;80.92;99570.44;5019053;28;20242;-76
2022/06/24 08:22:13;;;;;;;2.83;1.83;;;;;;;29.24;81.16;99556.91;5005209;28;20618;-76
2022/06/24 08:24:40;;;;;;;2.87;1.83;;;;;;;29.42;79.88;99555.09;5003632;28;20641;-76
2022/06/24 08:27:06;;;;;;;2.03;1.60;;;;;;;29.47;79.80;99557.31;5015573;28;20191;-77
2022/06/24 08:29:31;;;;;;;2.80;1.77;;;;;;;29.37;79.83;99553.88;5008861;28;20548;-76
2022/06/24 08:31:56;;;;;;;2.47;1.50;;;;;;;29.26;80.37;99549.63;5005870;28;20697;-76
2022/06/24 08:34:22;;;;;;;1.90;1.67;;;;;;;29.30;79.98;99542.97;5004534;28;20212;-76
2022/06/24 08:36:48;;;;;;;3.70;1.67;;;;;;;29.43;79.88;99547.94;4999790;28;20212;-76
2022/06/24 08:39:16;;;;;;;1.67;1.50;;;;;;;29.45;79.62;99543.31;5006689;28;20560;-76
2022/06/24 08:41:45;;;;;;;2.83;1.80;;;;;;;29.56;79.59;99542.22;5007656;28;20215;-76
2022/06/24 08:44:12;;;;;;;2.17;1.90;;;;;;;29.68;79.02;99542.78;5007529;28;20215;-76
2022/06/24 08:46:39;;;;;;;3.10;1.70;;;;;;;29.77;78.40;99537.34;5008069;28;20180;-76
2022/06/24 08:49:05;;;;;;;3.40;2.23;;;;;;;29.78;78.04;99535.53;5007360;28;20887;-76
2022/06/24 08:51:32;;;;;;;2.70;1.80;;;;;;;29.81;77.94;99537.88;5023755;28;20188;-76
2022/06/24 08:54:00;;;;;;;2.70;1.70;;;;;;;29.88;77.70;99533.59;5006521;28;20212;-76
2022/06/24 08:56:26;;;;;;;2.17;1.63;;;;;;;29.94;77.52;99538.31;5022741;28;20185;-75
2022/06/24 08:58:53;;;;;;;1.80;1.33;;;;;;;29.95;77.41;99547.16;5007816;28;20242;-76
2022/06/24 09:01:19;;;;;;;2.50;1.70;;;;;;;29.92;78.02;99537.63;5003321;28;20826;-76
2022/06/24 09:03:44;;;;;;;2.23;1.70;;;;;;;30.01;77.19;99541.19;5006438;28;20269;-76
2022/06/24 09:06:14;;;;;;;3.50;1.70;;;;;;;30.16;77.57;99536.09;5005758;28;20330;-77
2022/06/24 09:08:44;;;;;;;3.60;2.10;;;;;;;30.13;77.05;99530.25;5002916;28;20883;-75
2022/06/24 09:11:12;;;;;;;1.93;1.60;;;;;;;29.90;76.61;99523.59;5007953;28;20578;-76
2022/06/24 09:13:45;;;;;;;3.20;1.87;;;;;;;29.47;76.80;99523.47;5006990;28;20227;-76
2022/06/24 09:16:12;;;;;;;3.53;1.90;;;;;;;29.14;77.32;99533.03;5004621;28;20992;-77
2022/06/24 09:18:39;;;;;;;2.87;1.40;;;;;;;28.97;77.95;99532.88;5004717;28;20189;-76
2022/06/24 09:21:04;;;;;;;2.40;1.70;;;;;;;28.83;77.59;99520.91;5006153;28;20192;-76
2022/06/24 09:23:30;;;;;;;2.03;1.47;;;;;;;28.73;77.76;99525.47;5015370;28;20544;-77
2022/06/24 09:26:01;;;;;;;2.80;1.77;;;;;;;28.64;77.28;99523.69;5018927;28;20208;-76
2022/06/24 09:28:29;;;;;;;2.33;1.70;;;;;;;28.61;78.50;99522.13;5015654;28;20318;-76
2022/06/24 09:31:12;;;;;;;2.60;1.73;;;;;;;28.72;78.35;99516.63;5006169;28;20188;-77
2022/06/24 09:33:39;;;;;;;3.30;1.83;;;;;;;28.77;77.57;99523.31;5001684;28;20329;-75
2022/06/24 09:36:07;;;;;;;3.73;2.10;;;;;;;28.85;77.28;99524.25;5003046;28;20778;-77
2022/06/24 09:39:02;;;;;;;3.30;1.80;;;;;;;29.03;77.22;99526.09;5007152;28;20187;-76
2022/06/24 09:41:28;;;;;;;6.03;2.10;;;;;;;29.16;77.86;99528.38;5005726;28;20234;-77
2022/06/24 09:43:57;;;;;;;4.87;2.10;;;;;;;29.26;77.88;99526.47;5002262;28;20204;-77
2022/06/24 09:46:24;;;;;;;2.00;1.70;;;;;;;29.24;77.59;99528.44;5005254;28;20267;-76
2022/06/24 09:48:53;;;;;;;4.43;1.63;;;;;;;29.15;78.23;99529.38;5021660;28;20220;-77
2022/06/24 09:51:19;;;;;;;3.17;1.90;;;;;;;29.11;78.14;99528.84;5007512;28;20188;-78
2022/06/24 09:53:46;;;;;;;2.10;1.63;;;;;;;29.14;76.54;99527.69;5024467;28;20222;-76
2022/06/24 09:56:13;;;;;;;1.60;1.50;;;;;;;28.97;76.33;99524.03;5005116;28;20189;-77
2022/06/24 09:58:41;;;;;;;2.03;1.87;;;;;;;28.88;76.26;99531.94;5010027;28;20767;-76
2022/06/24 10:01:06;;;;;;;2.23;1.67;;;;;;;28.87;76.53;99530.25;5004332;28;20185;-76
2022/06/24 10:03:34;;;;;;;2.30;1.77;;;;;;;28.86;76.09;99523.25;5004010;28;20203;-76
2022/06/24 10:06:02;;;;;;;2.93;1.70;;;;;;;28.63;75.77;99525.50;5022318;28;20605;-76
2022/06/24 10:08:32;;;;;;;3.57;1.90;;;;;;;28.36;76.67;99529.84;5015628;28;20238;-76
2022/06/24 10:11:00;;;;;;;2.87;1.93;;;;;;;28.14;76.81;99531.06;5006922;28;20222;-75
2022/06/24 10:13:29;;;;;;;1.93;1.73;;;;;;;28.11;76.99;99524.22;5021117;28;20204;-78
2022/06/24 10:15:57;;;;;;;2.27;1.73;;;;;;;28.22;76.91;99525.00;4999447;28;20189;-75
2022/06/24 10:18:34;;;;;;;2.43;1.90;;;;;;;28.35;77.50;99522.03;5007785;28;20184;-75
2022/06/24 10:21:02;;;;;;;2.90;1.70;;;;;;;28.47;77.33;99514.66;5006229;28;20176;-76
2022/06/24 10:23:38;;;;;;;2.03;1.40;;;;;;;28.59;75.73;99524.09;5004162;28;20298;-75
2022/06/24 10:26:13;;;;;;;2.10;1.57;;;;;;;28.83;76.10;99523.56;5016059;28;20210;-75
2022/06/24 10:29:03;;;;;;;2.03;1.50;;;;;;;29.05;75.28;99511.63;5005629;28;20911;-76
2022/06/24 10:31:53;;;;;;;2.40;1.50;;;;;;;29.04;73.95;99522.44;5013196;28;20178;-75
2022/06/24 10:34:22;;;;;;;1.60;1.30;;;;;;;28.68;70.11;99517.91;4997714;28;20287;-77
2022/06/24 10:37:12;;;;;;;2.30;1.63;;;;;;;28.35;70.77;99516.69;5005560;28;20602;-76
2022/06/24 10:39:49;;;;;;;2.27;2.07;;;;;;;28.15;71.70;99519.44;5003477;28;20946;-75
2022/06/24 10:42:24;;;;;;;1.83;1.63;;;;;;;28.22;72.77;99507.22;5008595;28;20184;-76
2022/06/24 10:45:05;;;;;;;3.53;1.83;;;;;;;28.44;72.79;99507.81;5019908;28;20199;-76
2022/06/24 10:47:33;;;;;;;2.83;1.80;;;;;;;28.74;72.67;99504.00;5000911;28;20252;-75
2022/06/24 10:50:02;;;;;;;2.20;1.90;;;;;;;28.96;72.99;99515.22;5003773;28;20184;-75
2022/06/24 10:52:37;;;;;;;1.70;1.60;;;;;;;29.11;72.53;99509.34;5005661;28;20660;-75
2022/06/24 10:55:18;;;;;;;;;;;;;;;;;;;;;
2022/06/24 10:57:47;;;;;;;2.63;1.90;;;;;;;29.39;71.13;99503.94;5005142;28;20192;-74
2022/06/24 11:00:36;;;;;;;1.60;1.50;;;;;;;29.25;70.94;99507.97;4998523;28;20195;-76
2022/06/24 11:03:05;;;;;;;1.40;1.30;;;;;;;29.13;70.77;99497.53;4999591;28;20223;-76
2022/06/24 11:05:39;;;;;;;2.20;1.17;;;;;;;29.02;67.72;99482.66;5002896;28;20197;-77
2022/06/24 11:08:13;;;;;;;2.77;1.30;;;;;;;28.90;68.30;99476.72;5002267;28;20192;-77
2022/06/24 11:10:39;;;;;;;3.50;1.30;;;;;;;28.84;68.96;99473.81;5019840;28;20176;-76
2022/06/24 11:13:04;;;;;;;1.10;1.00;;;;;;;28.82;69.53;99465.97;5020037;28;20554;-76
2022/06/24 11:15:39;;;;;;;1.07;0.97;;;;;;;28.86;69.63;99472.66;4998956;28;20237;-76
2022/06/24 11:18:18;;;;;;;0.97;0.87;;;;;;;28.96;68.98;99477.09;5004876;28;20249;-76
2022/06/24 11:20:47;;;;;;;2.17;1.00;;;;;;;29.07;69.04;99481.31;5015318;28;20552;-77
2022/06/24 11:23:15;;;;;;;1.23;1.13;;;;;;;29.25;69.72;99474.16;4999230;28;20322;-76
2022/06/24 11:25:46;;;;;;;1.73;1.30;;;;;;;29.46;69.84;99484.50;5004595;28;20200;-77
2022/06/24 11:28:25;;;;;;;1.30;1.20;;;;;;;29.67;69.44;99485.97;5005828;28;20220;-76
2022/06/24 11:30:52;;;;;;;1.20;1.10;;;;;;;29.88;68.78;99484.72;5018263;28;20691;-77
2022/06/24 11:33:18;;;;;;;1.10;1.00;;;;;;;30.07;68.22;99484.53;5002214;28;20235;-76
2022/06/24 11:35:46;;;;;;;1.20;1.10;;;;;;;30.25;67.90;99476.41;4994942;28;20315;-77
2022/06/24 11:38:11;;;;;;;1.20;1.10;;;;;;;30.44;67.95;99474.47;5016991;28;20225;-77
2022/06/24 11:40:39;;;;;;;1.67;0.93;;;;;;;30.51;67.41;99475.50;4998079;28;20189;-77
2022/06/24 11:43:12;;;;;;;1.50;1.10;;;;;;;30.63;67.53;99470.69;5001759;28;20213;-76